createdAt,value
2023-04-02T06:45:30.864Z,1010.10
2023-04-02T06:46:27.997Z,1009.80
2023-04-02T06:47:27.987Z,1009.55
2023-04-02T06:48:28.930Z,1009.52
2023-04-02T06:49:27.969Z,1009.68
2023-04-02T06:50:28.322Z,1009.61
2023-04-02T06:51:27.906Z,1009.50
2023-04-02T06:52:27.897Z,1009.67
2023-04-02T06:53:29.833Z,1010.35
2023-04-02T06:54:28.868Z,1010.85
2023-04-02T06:55:27.964Z,1010.61
2023-04-02T06:56:27.907Z,1011.94
2023-04-02T06:57:27.913Z,1012.92
2023-04-02T06:58:27.843Z,1012.44
2023-04-02T06:59:28.705Z,1011.15
2023-04-02T07:00:27.835Z,1010.96
2023-04-02T07:01:33.433Z,1011.25
2023-04-02T07:02:27.811Z,1012.47
2023-04-02T07:03:28.104Z,1012.30
2023-04-02T07:04:31.909Z,1010.90
2023-04-02T07:05:30.599Z,1010.34
2023-04-02T07:12:03.201Z,1016.62
2023-04-02T07:12:58.592Z,1016.15
2023-04-02T07:13:58.570Z,1015.87
2023-04-02T07:14:59.145Z,1017.58
2023-04-02T07:16:04.853Z,1019.41
2023-04-02T07:16:58.563Z,1020.91
2023-04-02T07:17:58.239Z,1022.37
2023-04-02T07:18:58.188Z,1022.76
2023-04-02T07:19:58.180Z,1021.78
2023-04-02T07:36:52.441Z,1028.40
2023-04-02T07:37:56.121Z,1028.56
2023-04-02T07:38:53.107Z,1028.18
2023-04-02T07:39:55.619Z,1026.83
2023-04-02T07:40:52.375Z,1025.81
2023-04-02T07:41:52.689Z,1025.65
2023-04-02T07:42:53.541Z,1024.92
2023-04-02T07:53:12.750Z,1025.27
2023-04-02T07:54:10.142Z,1024.31
2023-04-02T07:55:10.160Z,1024.88
2023-04-02T07:56:10.563Z,1025.17
2023-04-02T07:57:10.524Z,1025.92
2023-04-02T07:58:12.274Z,1026.14
2023-04-02T07:59:10.133Z,1026.25
2023-04-02T08:00:10.132Z,1027.50
2023-04-02T08:01:12.931Z,1027.94
2023-04-02T08:02:10.141Z,1027.52
2023-04-02T08:03:10.173Z,1025.89
2023-04-02T08:04:10.091Z,1024.55
2023-04-02T08:05:10.046Z,1023.31
2023-04-02T08:06:10.041Z,1022.92
2023-04-02T08:07:10.032Z,1024.16
2023-04-02T08:08:10.021Z,1025.73
2023-04-02T08:09:09.998Z,1025.92
2023-04-02T08:10:10.255Z,1025.51
2023-04-02T08:11:10.002Z,1024.38
2023-04-02T08:12:09.984Z,1023.55
2023-04-02T08:13:09.940Z,1023.10
2023-04-02T08:14:13.867Z,1022.98
2023-04-02T08:15:11.808Z,1023.33
2023-04-02T08:16:09.940Z,1023.93
2023-04-02T08:17:09.909Z,1024.30
2023-04-02T08:18:10.757Z,1024.38
2023-04-02T08:19:09.914Z,1024.40
2023-04-02T08:20:09.863Z,1024.67
2023-04-02T08:21:10.136Z,1024.52
2023-04-02T08:22:09.856Z,1023.91
2023-04-02T08:23:09.842Z,1023.20
2023-04-02T08:24:09.845Z,1022.91
2023-04-02T08:25:09.827Z,1021.94
2023-04-02T08:26:09.827Z,1020.80
2023-04-02T08:27:09.806Z,1020.09
2023-04-02T08:28:09.883Z,1020.23
2023-04-02T08:29:09.777Z,1020.84
2023-04-02T08:30:09.764Z,1021.78
2023-04-02T08:31:09.762Z,1021.82
2023-04-02T08:32:09.728Z,1022.56
2023-04-02T08:33:09.761Z,1023.74
2023-04-02T08:34:09.754Z,1023.92
2023-04-02T08:35:09.699Z,1023.96
2023-04-02T08:36:09.727Z,1024.43
2023-04-02T08:37:09.680Z,1024.26
2023-04-02T08:38:09.812Z,1024.42
2023-04-02T08:39:09.670Z,1024.36
2023-04-02T08:40:09.674Z,1024.04
2023-04-02T08:41:09.636Z,1023.46
2023-04-02T08:42:09.676Z,1022.23
2023-04-02T08:43:09.625Z,1020.74
2023-04-02T08:44:09.624Z,1020.30
2023-04-02T08:45:23.688Z,1019.04
2023-04-02T08:46:10.618Z,1018.09
2023-04-02T08:47:09.576Z,1018.16
2023-04-02T08:48:09.664Z,1018.51
2023-04-02T08:49:09.569Z,1019.27
2023-04-02T08:50:09.585Z,1019.80
2023-04-02T08:51:09.526Z,1020.18
2023-04-02T08:52:09.610Z,1019.58
2023-04-02T08:53:09.499Z,1019.51
2023-04-02T08:54:09.493Z,1020.83
2023-04-02T08:55:09.484Z,1022.61
2023-04-02T08:56:09.491Z,1024.12
2023-04-02T08:57:10.072Z,1024.85
2023-04-02T08:58:09.822Z,1024.89
2023-04-02T08:59:10.290Z,1024.08
2023-04-02T09:00:12.307Z,1022.65
2023-04-02T09:01:09.449Z,1021.72
2023-04-02T09:02:09.419Z,1020.77
2023-04-02T09:03:09.454Z,1019.94
2023-04-02T09:04:09.387Z,1019.58
2023-04-02T09:05:09.467Z,1018.77
2023-04-02T09:06:09.377Z,1018.29
2023-04-02T09:07:09.398Z,1016.69
2023-04-02T09:08:13.278Z,1016.61
2023-04-02T09:09:11.111Z,1017.51
2023-04-02T09:10:09.302Z,1018.21
2023-04-02T09:11:09.323Z,1018.70
2023-04-02T09:12:09.280Z,1019.37
2023-04-02T09:13:09.273Z,1020.42
2023-04-02T09:14:19.318Z,1021.30
2023-04-02T09:15:18.169Z,1021.65
2023-04-02T09:16:09.267Z,1022.09
2023-04-02T09:17:09.309Z,1022.06
2023-04-02T09:18:09.270Z,1022.00
2023-04-02T09:19:12.040Z,1022.32
2023-04-02T09:20:09.241Z,1022.13
2023-04-02T09:21:09.185Z,1021.31
2023-04-02T09:22:09.199Z,1020.58
2023-04-02T09:23:09.175Z,1019.93
2023-04-02T09:24:09.142Z,1019.33
2023-04-02T09:25:09.195Z,1019.43
2023-04-02T09:26:09.174Z,1020.65
2023-04-02T09:27:11.951Z,1021.65
2023-04-02T09:28:09.178Z,1021.66
2023-04-02T09:29:09.129Z,1021.83
2023-04-02T09:30:09.089Z,1022.17
2023-04-02T09:31:09.450Z,1022.07
2023-04-02T09:32:09.094Z,1022.18
2023-04-02T09:33:09.380Z,1021.83
2023-04-02T09:34:09.062Z,1022.22
2023-04-02T09:35:15.262Z,1022.14
2023-04-02T09:36:10.049Z,1022.00
2023-04-02T09:37:09.035Z,1021.89
2023-04-02T09:38:09.007Z,1022.36
2023-04-02T09:39:10.724Z,1022.27
2023-04-02T09:40:09.418Z,1021.72
2023-04-02T09:41:09.004Z,1021.01
2023-04-02T09:42:08.970Z,1020.54
2023-04-02T09:43:08.960Z,1020.37
2023-04-02T09:44:08.962Z,1020.24
2023-04-02T09:45:08.940Z,1019.86
2023-04-02T09:46:08.968Z,1019.56
2023-04-02T09:47:08.937Z,1019.39
2023-04-02T09:48:09.028Z,1019.16
2023-04-02T09:49:10.640Z,1018.78
2023-04-02T09:50:08.893Z,1018.52
2023-04-02T09:51:08.862Z,1018.44
2023-04-02T09:52:08.882Z,1017.63
2023-04-02T09:53:08.883Z,1017.07
2023-04-02T09:54:08.837Z,1017.52
2023-04-02T09:55:08.857Z,1017.88
2023-04-02T09:56:08.860Z,1018.57
2023-04-02T09:57:08.857Z,1018.53
2023-04-02T09:58:08.826Z,1018.48
2023-04-02T09:59:09.459Z,1019.48
2023-04-02T10:00:12.284Z,1019.60
2023-04-02T10:01:09.826Z,1020.47
2023-04-02T10:02:08.781Z,1021.52
2023-04-02T10:03:09.042Z,1022.59
2023-04-02T10:04:08.760Z,1023.18
2023-04-02T10:05:08.762Z,1023.82
2023-04-02T10:06:08.684Z,1025.31
2023-04-02T10:07:08.741Z,1026.22
2023-04-02T10:08:08.690Z,1026.33
2023-04-02T10:09:08.685Z,1026.27
2023-04-02T10:10:08.676Z,1025.89
2023-04-02T10:11:08.677Z,1025.97
2023-04-02T10:12:08.750Z,1026.32
2023-04-02T10:13:08.673Z,1026.45
2023-04-02T10:14:08.667Z,1026.48
2023-04-02T10:15:08.722Z,1026.43
2023-04-02T10:16:08.659Z,1026.79
2023-04-02T10:17:08.771Z,1026.68
2023-04-02T10:18:08.781Z,1026.39
2023-04-02T10:19:08.543Z,1025.70
2023-04-02T10:20:08.671Z,1024.73
2023-04-02T10:21:08.633Z,1023.64
2023-04-02T10:22:08.612Z,1023.66
2023-04-02T10:23:08.546Z,1023.37
2023-04-02T10:24:08.503Z,1023.16
2023-04-02T10:25:08.511Z,1023.69
2023-04-02T10:26:08.487Z,1023.94
2023-04-02T10:27:08.479Z,1023.29
2023-04-02T10:28:08.483Z,1022.44
2023-04-02T10:29:08.425Z,1021.80
2023-04-02T10:30:08.452Z,1021.17
2023-04-02T10:31:08.505Z,1021.43
2023-04-02T10:32:08.444Z,1021.38
2023-04-02T10:33:08.451Z,1021.06
2023-04-02T10:34:08.396Z,1020.98
2023-04-02T10:35:08.399Z,1020.96
2023-04-02T10:36:08.422Z,1021.05
2023-04-02T10:37:08.373Z,1020.74
2023-04-02T10:38:08.358Z,1020.12
2023-04-02T10:39:08.338Z,1019.16
2023-04-02T10:40:08.321Z,1018.84
2023-04-02T10:41:08.333Z,1019.40
2023-04-02T10:42:08.320Z,1019.51
2023-04-02T10:43:08.282Z,1018.84
2023-04-02T10:44:18.960Z,1017.77
2023-04-02T10:45:09.315Z,1016.67
2023-04-02T10:46:08.368Z,1016.20
2023-04-02T10:47:08.270Z,1015.89
2023-04-02T10:48:08.303Z,1015.92
2023-04-02T10:49:08.240Z,1016.09
2023-04-02T10:50:08.250Z,1017.31
2023-04-02T10:51:08.203Z,1018.19
2023-04-02T10:52:08.200Z,1018.54
2023-04-02T10:53:08.178Z,1018.06
2023-04-02T10:54:08.183Z,1017.02
2023-04-02T10:55:08.193Z,1016.85
2023-04-02T10:56:08.147Z,1018.36
2023-04-02T10:57:08.233Z,1019.27
2023-04-02T10:58:08.123Z,1018.47
2023-04-02T10:59:08.105Z,1018.09
2023-04-02T11:00:08.140Z,1019.30
2023-04-02T11:01:08.127Z,1021.27
2023-04-02T11:02:08.071Z,1022.06
2023-04-02T11:03:08.220Z,1022.30
2023-04-02T11:04:08.106Z,1022.91
2023-04-02T11:05:08.075Z,1023.45
2023-04-02T11:06:08.068Z,1023.21
2023-04-02T11:07:14.645Z,1022.91
2023-04-02T11:08:09.062Z,1022.05
2023-04-02T11:09:08.018Z,1020.45
2023-04-02T11:10:08.001Z,1019.08
2023-04-02T11:11:15.713Z,1018.92
2023-04-02T11:12:09.920Z,1019.48
2023-04-02T11:13:10.519Z,1020.50
2023-04-02T11:14:08.502Z,1021.54
2023-04-02T11:15:08.396Z,1021.38
2023-04-02T11:16:08.081Z,1021.15
2023-04-02T11:17:17.738Z,1020.53
2023-04-02T11:18:11.324Z,1020.77
2023-04-02T11:19:13.952Z,1022.30
2023-04-02T11:42:15.505Z,1019.65
2023-04-02T11:43:16.618Z,1018.62
2023-04-02T11:44:15.349Z,1018.53
2023-04-02T11:45:19.115Z,1018.77
2023-04-02T11:46:19.382Z,1019.38
2023-04-02T11:47:17.548Z,1020.49
2023-04-02T11:48:15.275Z,1021.62
2023-04-02T11:49:16.226Z,1022.02
2023-04-02T11:50:15.240Z,1022.41
2023-04-02T11:51:15.980Z,1023.07
2023-04-02T11:52:15.249Z,1023.64
2023-04-02T11:53:17.032Z,1024.66
2023-04-02T11:54:15.193Z,1026.02
2023-04-02T11:55:15.186Z,1026.38
2023-04-02T11:56:15.215Z,1024.69
2023-04-02T11:57:21.619Z,1022.05
2023-04-02T11:58:15.165Z,1020.99
2023-04-02T11:59:15.139Z,1020.92
2023-04-02T12:00:16.868Z,1021.60
2023-04-02T12:01:15.158Z,1021.40
2023-04-02T12:02:15.153Z,1020.13
2023-04-02T12:03:15.131Z,1018.60
2023-04-02T12:04:16.067Z,1017.40
2023-04-02T12:05:15.080Z,1016.64
2023-04-02T12:06:19.980Z,1015.97
2023-04-02T12:07:16.737Z,1014.87
2023-04-02T12:08:15.979Z,1013.66
2023-04-02T12:13:17.949Z,1014.60
2023-04-02T12:14:15.142Z,1014.48
2023-04-02T12:15:15.122Z,1015.20
2023-04-02T12:16:15.113Z,1016.33
2023-04-02T12:17:15.175Z,1017.13
2023-04-02T12:18:15.082Z,1017.17
2023-04-02T12:19:15.093Z,1015.72
2023-04-02T12:20:15.062Z,1014.35
2023-04-02T12:21:15.066Z,1013.79
2023-04-02T12:22:15.360Z,1014.37
2023-04-02T12:23:15.050Z,1014.82
2023-04-02T12:24:15.024Z,1014.95
2023-04-02T12:25:15.005Z,1014.62
2023-04-02T12:26:15.000Z,1014.68
2023-04-02T12:27:14.978Z,1013.30
2023-04-02T12:28:15.041Z,1011.25
2023-04-02T12:29:14.978Z,1008.91
2023-04-02T12:30:14.976Z,1007.74
2023-04-02T12:31:14.976Z,1008.47
2023-04-02T12:32:14.972Z,1008.86
2023-04-02T12:33:14.961Z,1008.49
2023-04-02T12:34:14.891Z,1008.73
2023-04-02T12:35:14.911Z,1010.67
2023-04-02T12:36:14.905Z,1012.51
2023-04-02T12:37:14.918Z,1014.27
2023-04-02T12:38:14.861Z,1015.02
2023-04-02T12:39:17.603Z,1016.07
2023-04-02T12:40:14.831Z,1016.40
2023-04-02T12:41:14.822Z,1015.23
2023-04-02T12:42:14.846Z,1014.38
2023-04-02T12:43:14.823Z,1013.69
2023-04-02T12:44:27.822Z,1013.04
2023-04-02T12:45:14.890Z,1012.04
2023-04-02T12:46:14.845Z,1010.64
2023-04-02T12:49:47.375Z,1013.35
2023-04-02T12:50:47.346Z,1013.79
2023-04-02T12:51:47.357Z,1014.03
2023-04-02T12:52:47.325Z,1013.41
2023-04-02T12:53:47.319Z,1012.59
2023-04-02T12:54:47.310Z,1011.36
2023-04-02T12:55:48.090Z,1010.27
2023-04-02T12:56:47.261Z,1009.81
2023-04-02T12:57:47.253Z,1009.20
2023-04-02T12:58:47.252Z,1009.46
2023-04-02T12:59:47.304Z,1010.44
2023-04-02T13:00:47.212Z,1011.79
2023-04-02T13:01:47.265Z,1012.74
2023-04-02T13:02:47.272Z,1013.24
2023-04-02T13:03:47.250Z,1013.85
2023-04-02T13:04:47.180Z,1014.15
2023-04-02T13:05:47.196Z,1014.55
2023-04-02T13:06:47.181Z,1015.26
2023-04-02T13:07:47.198Z,1016.34
2023-04-02T13:08:47.163Z,1016.90
2023-04-02T13:09:47.179Z,1017.06
2023-04-02T13:10:47.145Z,1017.62
2023-04-02T13:11:47.120Z,1018.67
2023-04-02T13:12:47.123Z,1021.26
2023-04-02T13:13:47.088Z,1023.74
2023-04-02T13:14:47.079Z,1024.78
2023-04-02T13:15:47.085Z,1023.82
2023-04-02T13:16:47.079Z,1021.61
2023-04-02T13:17:47.080Z,1019.65
2023-04-02T13:18:47.045Z,1018.04
2023-04-02T13:19:47.035Z,1017.81
2023-04-02T13:20:47.006Z,1017.22
2023-04-02T13:21:47.043Z,1016.44
2023-04-02T13:22:46.991Z,1015.37
2023-04-02T13:23:47.011Z,1015.19
2023-04-02T13:24:46.971Z,1016.00
2023-04-02T13:25:46.953Z,1016.68
2023-04-02T13:26:46.944Z,1017.12
2023-04-02T13:27:46.978Z,1017.62
2023-04-02T13:28:46.916Z,1018.16
2023-04-02T13:29:46.931Z,1018.67
2023-04-02T13:30:46.876Z,1018.71
2023-04-02T13:31:46.909Z,1019.49
2023-04-02T13:32:46.963Z,1019.86
2023-04-02T13:33:46.861Z,1019.44
2023-04-02T13:34:46.850Z,1019.08
2023-04-02T13:35:46.952Z,1018.98
2023-04-02T13:36:46.819Z,1018.31
2023-04-02T13:37:46.878Z,1017.67
2023-04-02T13:38:46.835Z,1017.50
2023-04-02T13:39:46.803Z,1018.38
2023-04-02T13:40:46.783Z,1018.23
2023-04-02T13:41:46.770Z,1017.30
2023-04-02T13:42:46.754Z,1016.76
2023-04-02T13:43:46.751Z,1016.78
2023-04-02T13:44:47.178Z,1017.39
2023-04-02T13:45:46.740Z,1017.15
2023-04-02T13:46:46.717Z,1016.55
2023-04-02T13:47:46.740Z,1015.60
2023-04-02T13:48:46.690Z,1014.47
2023-04-02T13:49:46.697Z,1013.89
2023-04-02T13:50:46.892Z,1013.19
2023-04-02T13:51:46.645Z,1012.14
2023-04-02T13:52:46.677Z,1010.92
2023-04-02T13:53:46.670Z,1010.02
2023-04-02T13:54:47.036Z,1008.69
2023-04-02T13:55:46.602Z,1007.62
2023-04-02T13:56:46.618Z,1006.60
2023-04-02T13:57:46.607Z,1004.97
2023-04-02T13:58:46.604Z,1002.28
2023-04-02T13:59:46.579Z,999.88
2023-04-02T14:00:46.568Z,997.57
2023-04-02T14:01:46.561Z,995.25
2023-04-02T14:02:46.556Z,994.14
2023-04-02T14:03:46.537Z,994.33
2023-04-02T14:04:48.647Z,996.51
2023-04-02T14:05:46.498Z,999.48
2023-04-02T14:06:46.475Z,1001.02
2023-04-02T14:07:46.750Z,1001.83
2023-04-02T14:08:46.469Z,1003.05
2023-04-02T14:09:46.457Z,1004.19
2023-04-02T14:10:46.453Z,1006.00
2023-04-02T14:11:46.435Z,1008.53
2023-04-02T14:12:46.417Z,1011.00
2023-04-02T14:13:46.419Z,1012.69
2023-04-02T14:14:46.387Z,1014.47
2023-04-02T14:15:46.409Z,1014.98
2023-04-02T14:16:46.428Z,1015.13
2023-04-02T14:17:46.378Z,1013.81
2023-04-02T14:18:46.349Z,1012.28
2023-04-02T14:19:46.338Z,1010.37
2023-04-02T14:20:46.346Z,1009.93
2023-04-02T14:21:46.313Z,1010.74
2023-04-02T14:22:46.313Z,1010.64
2023-04-02T14:23:46.296Z,1009.47
2023-04-02T14:24:46.292Z,1008.25
2023-04-02T14:25:46.296Z,1008.79
2023-04-02T14:26:46.250Z,1007.70
2023-04-02T14:27:46.253Z,1005.74
2023-04-02T14:28:46.240Z,1005.27
2023-04-02T14:29:53.221Z,1005.27
2023-04-02T14:30:53.245Z,1006.82
2023-04-02T14:31:53.201Z,1008.69
2023-04-02T14:32:54.233Z,1009.37
2023-04-02T14:33:53.186Z,1009.80
2023-04-02T14:34:53.682Z,1009.48
2023-04-02T14:35:46.151Z,1011.10
2023-04-02T14:36:46.401Z,1012.53
2023-04-02T14:37:46.120Z,1012.99
2023-04-02T14:38:46.139Z,1012.53
2023-04-02T14:39:46.093Z,1011.24
2023-04-02T14:40:46.150Z,1009.62
2023-04-02T14:41:46.074Z,1009.65
2023-04-02T14:42:46.073Z,1009.09
2023-04-02T14:43:46.073Z,1008.68
2023-04-02T14:44:46.072Z,1009.22
2023-04-02T14:45:46.065Z,1009.25
2023-04-02T14:46:46.128Z,1009.60
2023-04-02T14:47:46.055Z,1011.79
2023-04-02T14:48:46.024Z,1013.58
2023-04-02T14:49:45.992Z,1014.81
2023-04-02T14:50:45.985Z,1015.43
2023-04-02T14:51:45.968Z,1015.93
2023-04-02T14:52:45.985Z,1016.20
2023-04-02T14:53:45.967Z,1016.20
2023-04-02T14:54:45.935Z,1016.19
2023-04-02T14:55:45.928Z,1016.63
2023-04-02T14:56:45.928Z,1016.78
2023-04-02T14:57:45.887Z,1016.15
2023-04-02T14:58:45.918Z,1015.65
2023-04-02T14:59:45.892Z,1015.70
2023-04-02T15:00:45.866Z,1014.67
2023-04-02T15:01:45.906Z,1013.51
2023-04-02T15:02:46.276Z,1013.67
2023-04-02T15:03:45.834Z,1013.05
2023-04-02T15:04:45.906Z,1013.76
2023-04-02T15:05:45.812Z,1013.63
2023-04-02T15:06:45.812Z,1013.03
2023-04-02T15:07:45.835Z,1014.20
2023-04-02T15:08:52.226Z,1013.19
2023-04-02T15:09:46.815Z,1010.73
2023-04-02T15:10:45.755Z,1008.71
2023-04-02T15:11:45.802Z,1006.75
2023-04-02T15:12:45.728Z,1006.69
2023-04-02T15:13:45.720Z,1005.61
2023-04-02T15:14:45.700Z,1005.15
2023-04-02T15:15:45.782Z,1005.43
2023-04-02T15:16:45.678Z,1005.04
2023-04-02T15:17:45.718Z,1005.23
2023-04-02T15:18:45.769Z,1004.26
2023-04-02T15:19:45.794Z,1002.87
2023-04-02T15:20:45.651Z,1002.37
2023-04-02T15:21:55.893Z,1001.85
2023-04-02T15:22:46.613Z,1001.43
2023-04-02T15:23:45.609Z,1002.01
2023-04-02T15:24:45.619Z,1001.89
2023-04-02T15:25:45.558Z,1002.41
2023-04-02T15:26:45.578Z,1003.25
2023-04-02T15:27:45.554Z,1004.02
2023-04-02T15:28:45.620Z,1004.17
2023-04-02T15:29:45.559Z,1004.49
2023-04-02T15:30:45.527Z,1004.62
2023-04-02T15:31:45.541Z,1004.95
2023-04-02T15:32:45.552Z,1005.49
2023-04-02T15:33:45.488Z,1006.60
2023-04-02T15:34:45.514Z,1005.90
2023-04-02T15:35:45.501Z,1006.02
2023-04-02T15:36:45.510Z,1005.53
2023-04-02T15:37:45.444Z,1005.59
2023-04-02T15:38:45.419Z,1004.96
2023-04-02T15:39:45.458Z,1004.63
2023-04-02T15:40:45.414Z,1005.20
2023-04-02T15:41:45.410Z,1004.82
2023-04-02T15:42:45.434Z,1005.62
2023-04-02T15:43:45.407Z,1004.75
2023-04-02T15:44:45.362Z,1005.74
2023-04-02T15:45:45.412Z,1006.43
2023-04-02T15:46:45.387Z,1007.13
2023-04-02T15:47:45.350Z,1006.75
2023-04-02T15:48:45.358Z,1007.29
2023-04-02T15:49:45.316Z,1006.67
2023-04-02T15:50:45.300Z,1006.43
2023-04-02T15:51:45.414Z,1005.56
2023-04-02T15:52:45.272Z,1005.07
2023-04-02T15:53:45.280Z,1004.44
2023-04-02T15:54:45.342Z,1004.66
2023-04-02T15:55:45.252Z,1004.77
2023-04-02T15:56:45.230Z,1004.01
2023-04-02T15:57:45.211Z,1003.28
2023-04-02T15:58:45.220Z,1003.51
2023-04-02T15:59:45.224Z,1004.01
2023-04-02T16:00:45.294Z,1003.87
2023-04-02T16:01:45.345Z,1004.33
2023-04-02T16:02:45.206Z,1004.24
2023-04-02T16:03:45.164Z,1003.55
2023-04-02T16:04:45.174Z,1003.24
2023-04-02T16:05:45.185Z,1002.57
2023-04-02T16:06:45.134Z,1002.24
2023-04-02T16:07:45.110Z,1001.92
2023-04-02T16:08:45.126Z,1002.11
2023-04-02T16:09:45.102Z,1001.61
2023-04-02T16:10:45.333Z,1000.70
2023-04-02T16:11:45.067Z,999.96
2023-04-02T16:12:45.092Z,1000.28
2023-04-02T16:13:45.373Z,1001.99
2023-04-02T16:14:45.061Z,1001.97
2023-04-02T16:15:45.011Z,1001.88
2023-04-02T16:16:52.035Z,1003.20
2023-04-02T16:17:45.065Z,1004.45
2023-04-02T16:18:45.031Z,1004.75
2023-04-02T16:19:51.983Z,1005.16
2023-04-02T16:20:44.962Z,1005.48
2023-04-02T16:21:44.940Z,1005.86
2023-04-02T16:22:59.267Z,1006.26
2023-04-02T16:23:45.949Z,1007.58
2023-04-02T16:24:44.935Z,1007.80
2023-04-02T16:25:44.905Z,1007.22
2023-04-02T16:26:44.922Z,1007.02
2023-04-02T16:27:44.881Z,1006.58
2023-04-02T16:28:44.970Z,1006.24
2023-04-02T16:29:53.909Z,1006.18
2023-04-02T16:30:45.871Z,1006.59
2023-04-02T16:31:44.858Z,1007.26
2023-04-02T16:32:44.866Z,1006.75
2023-04-02T16:33:44.821Z,1006.97
2023-04-02T16:34:44.834Z,1007.16
2023-04-02T16:35:44.823Z,1007.48
2023-04-02T16:36:44.828Z,1008.03
2023-04-02T16:37:44.778Z,1008.04
2023-04-02T16:38:44.815Z,1009.10
2023-04-02T16:39:44.764Z,1009.49
2023-04-02T16:40:49.470Z,1009.85
2023-04-02T16:41:45.747Z,1009.62
2023-04-02T16:42:44.756Z,1008.74
2023-04-02T16:43:44.695Z,1008.38
2023-04-02T16:44:44.791Z,1008.06
2023-04-02T16:45:45.009Z,1009.09
2023-04-02T16:46:44.736Z,1008.40
2023-04-02T16:47:44.683Z,1008.21
2023-04-02T16:48:44.674Z,1008.45
2023-04-02T16:49:44.670Z,1008.55
2023-04-02T16:50:44.644Z,1007.80
2023-04-02T16:51:44.668Z,1007.68
2023-04-02T16:52:44.615Z,1007.69
2023-04-02T16:53:58.445Z,1007.12
2023-04-02T16:54:45.597Z,1006.28
2023-04-02T16:55:44.584Z,1006.15
2023-04-02T16:56:44.569Z,1006.37
2023-04-02T16:57:44.567Z,1007.56
2023-04-02T16:58:44.532Z,1008.67
2023-04-02T16:59:44.556Z,1008.81
2023-04-02T17:00:44.541Z,1009.28
2023-04-02T17:01:44.558Z,1009.95
2023-04-02T17:02:44.567Z,1009.76
2023-04-02T17:03:44.585Z,1010.10
2023-04-02T17:04:44.506Z,1010.62
2023-04-02T17:05:44.483Z,1011.03
2023-04-02T17:06:44.524Z,1011.33
2023-04-02T17:07:44.454Z,1011.12
2023-04-02T17:08:44.464Z,1011.26
2023-04-02T17:09:44.444Z,1011.12
2023-04-02T17:10:44.417Z,1011.02
2023-04-02T17:11:44.406Z,1010.86
2023-04-02T17:12:44.412Z,1011.03
2023-04-02T17:13:44.407Z,1011.11
2023-04-02T17:14:44.384Z,1013.23
2023-04-02T17:15:44.367Z,1013.11
2023-04-02T17:16:44.386Z,1012.56
2023-04-02T17:17:44.369Z,1013.07
2023-04-02T17:18:44.324Z,1012.49
2023-04-02T17:19:44.347Z,1011.81
2023-04-02T17:20:44.323Z,1011.30
2023-04-02T17:21:44.290Z,1011.43
2023-04-02T17:22:44.282Z,1011.53
2023-04-02T17:23:55.148Z,1012.27
2023-04-02T17:24:45.313Z,1012.82
2023-04-02T17:25:44.286Z,1012.82
2023-04-02T17:26:44.271Z,1013.43
2023-04-02T17:27:44.225Z,1014.15
2023-04-02T17:28:44.206Z,1014.36
2023-04-02T17:29:44.225Z,1013.91
2023-04-02T17:30:44.192Z,1014.26
2023-04-02T17:31:44.207Z,1014.88
2023-04-02T17:32:44.205Z,1015.41
2023-04-02T17:33:44.152Z,1015.48
2023-04-02T17:34:44.214Z,1015.16
2023-04-02T17:35:44.157Z,1014.70
2023-04-02T17:36:44.150Z,1014.18
2023-04-02T17:37:44.105Z,1013.68
2023-04-02T17:38:44.121Z,1013.20
2023-04-02T17:39:44.099Z,1013.58
2023-04-02T17:40:44.074Z,1013.38
2023-04-02T17:41:44.070Z,1013.74
2023-04-02T17:42:44.059Z,1013.77
2023-04-02T17:43:44.038Z,1012.89
2023-04-02T17:44:44.072Z,1012.15
2023-04-02T17:45:44.060Z,1011.91
2023-04-02T17:46:44.007Z,1012.29
2023-04-02T17:47:44.031Z,1012.14
2023-04-02T17:48:44.012Z,1012.22
2023-04-02T17:49:43.999Z,1012.98
2023-04-02T17:50:43.979Z,1012.78
2023-04-02T17:51:43.978Z,1012.82
2023-04-02T17:52:43.963Z,1013.12
2023-04-02T17:53:43.943Z,1014.21
2023-04-02T17:54:43.955Z,1013.95
2023-04-02T17:55:43.906Z,1013.46
2023-04-02T17:56:43.901Z,1012.71
2023-04-02T17:57:43.903Z,1012.93
2023-04-02T17:58:43.880Z,1012.52
2023-04-02T17:59:43.865Z,1012.28
2023-04-02T18:00:43.845Z,1012.22
2023-04-02T18:01:43.849Z,1012.78
2023-04-02T18:02:51.993Z,1012.77
2023-04-02T18:03:43.838Z,1012.90
2023-04-02T18:04:43.835Z,1012.94
2023-04-02T18:05:43.838Z,1013.39
2023-04-02T18:06:43.789Z,1013.62
2023-04-02T18:07:43.778Z,1014.13
2023-04-02T18:08:43.762Z,1015.26
2023-04-02T18:09:43.775Z,1015.46
2023-04-02T18:10:43.743Z,1014.95
2023-04-02T18:11:43.738Z,1015.10
2023-04-02T18:12:43.739Z,1015.14
2023-04-02T18:13:43.726Z,1015.35
2023-04-02T18:14:43.753Z,1015.35
2023-04-02T18:15:43.687Z,1015.45
2023-04-02T18:16:43.715Z,1015.80
2023-04-02T18:17:43.735Z,1015.73
2023-04-02T18:18:43.663Z,1015.33
2023-04-02T18:19:43.637Z,1015.02
2023-04-02T18:20:43.630Z,1014.86
2023-04-02T18:21:43.663Z,1015.33
2023-04-02T18:22:43.621Z,1015.73
2023-04-02T18:23:43.613Z,1015.69
2023-04-02T18:24:43.633Z,1015.73
2023-04-02T18:25:43.574Z,1016.11
2023-04-02T18:26:43.555Z,1016.30
2023-04-02T18:27:43.573Z,1016.19
2023-04-02T18:28:43.549Z,1016.13
2023-04-02T18:29:43.524Z,1016.60
2023-04-02T18:30:43.575Z,1016.29
2023-04-02T18:31:43.520Z,1016.50
2023-04-02T18:32:43.501Z,1016.67
2023-04-02T18:33:43.486Z,1016.60
2023-04-02T18:34:43.492Z,1016.26
2023-04-02T18:35:43.504Z,1016.83
2023-04-02T18:36:43.465Z,1017.70
2023-04-02T18:37:43.459Z,1018.18
2023-04-02T18:38:43.444Z,1018.57
2023-04-02T18:39:43.412Z,1018.21
2023-04-02T18:40:43.392Z,1017.52
2023-04-02T18:41:43.405Z,1017.15
2023-04-02T18:42:43.381Z,1017.30
2023-04-02T18:43:43.357Z,1017.17
2023-04-02T18:44:43.373Z,1016.94
2023-04-02T18:45:43.384Z,1016.38
2023-04-02T18:46:43.364Z,1016.08
2023-04-02T18:47:43.349Z,1015.96
2023-04-02T18:48:43.324Z,1015.80
2023-04-02T18:49:43.314Z,1016.03
2023-04-02T18:50:43.291Z,1016.26
2023-04-02T18:51:43.273Z,1016.38
2023-04-02T18:52:43.293Z,1015.93
2023-04-02T18:53:43.258Z,1015.66
2023-04-02T18:54:43.287Z,1015.61
2023-04-02T18:55:43.245Z,1015.45
2023-04-02T18:56:43.209Z,1015.87
2023-04-02T18:57:43.209Z,1016.29
2023-04-02T18:58:43.201Z,1016.50
2023-04-02T18:59:43.247Z,1016.44
2023-04-02T19:00:43.176Z,1016.22
2023-04-02T19:02:43.300Z,1015.57
2023-04-02T19:03:43.264Z,1015.00
2023-04-02T19:04:43.151Z,1014.20
2023-04-02T19:05:43.121Z,1013.95
2023-04-02T19:06:43.131Z,1013.61
2023-04-02T19:07:43.134Z,1013.64
2023-04-02T19:08:43.086Z,1013.89
2023-04-02T19:09:43.129Z,1013.96
2023-04-02T19:10:43.056Z,1014.19
2023-04-02T19:11:43.048Z,1014.37
2023-04-02T19:12:43.050Z,1014.88
2023-04-02T19:13:43.068Z,1015.02
2023-04-02T19:14:43.048Z,1014.95
2023-04-02T19:15:43.115Z,1015.23
2023-04-02T19:16:43.002Z,1015.61
2023-04-02T19:17:43.004Z,1015.24
2023-04-02T19:18:43.020Z,1015.36
2023-04-02T19:19:42.988Z,1015.12
2023-04-02T19:20:42.969Z,1014.34
2023-04-02T19:21:42.952Z,1014.16
2023-04-02T19:22:42.941Z,1013.79
2023-04-02T19:23:42.917Z,1013.73
2023-04-02T19:24:42.945Z,1014.04
2023-04-02T19:25:42.883Z,1014.70
2023-04-02T19:26:42.875Z,1016.24
2023-04-02T19:27:42.853Z,1016.03
2023-04-02T19:28:42.875Z,1015.65
2023-04-02T19:29:42.854Z,1015.33
2023-04-02T19:30:43.116Z,1015.38
2023-04-02T19:31:42.870Z,1014.91
2023-04-02T19:32:42.833Z,1014.59
2023-04-02T19:33:42.802Z,1014.38
2023-04-02T19:34:42.821Z,1014.21
2023-04-02T19:35:42.788Z,1014.41
2023-04-02T19:36:42.781Z,1014.53
2023-04-02T19:37:42.777Z,1014.67
2023-04-02T19:38:43.070Z,1015.29
2023-04-02T19:39:42.741Z,1015.79
2023-04-02T19:40:42.725Z,1016.14
2023-04-02T19:41:42.756Z,1016.03
2023-04-02T19:42:42.687Z,1015.85
2023-04-02T19:43:49.755Z,1016.56
2023-04-02T19:44:49.736Z,1017.44
2023-04-02T19:45:50.684Z,1017.63
2023-04-02T19:46:42.671Z,1017.01
2023-04-02T19:47:42.637Z,1016.83
2023-04-02T19:48:42.642Z,1017.00
2023-04-02T19:49:42.650Z,1016.26
2023-04-02T19:50:42.608Z,1016.42
2023-04-02T19:51:42.664Z,1015.94